createdAt,value
2023-03-03T00:00:12.622Z,1.29
2023-03-03T00:03:26.999Z,1.26
2023-03-03T00:06:19.164Z,1.23
2023-03-03T00:09:11.283Z,1.18
2023-03-03T00:12:13.491Z,1.15
2023-03-03T00:15:17.401Z,1.15
2023-03-03T00:18:22.552Z,1.12
2023-03-03T00:21:30.170Z,1.09
2023-03-03T00:24:25.432Z,1.09
2023-03-03T00:27:29.368Z,1.08
2023-03-03T00:30:25.195Z,1.04
2023-03-03T00:33:28.601Z,1.01
2023-03-03T00:36:37.180Z,0.99
2023-03-03T00:39:35.218Z,0.99
2023-03-03T00:42:30.185Z,0.97
2023-03-03T00:45:28.278Z,0.94
2023-03-03T00:48:29.486Z,0.90
2023-03-03T00:51:27.862Z,0.86
2023-03-03T00:54:20.049Z,0.85
2023-03-03T00:57:13.052Z,0.83
2023-03-03T01:00:05.993Z,0.80
2023-03-03T01:02:59.336Z,0.79
2023-03-03T01:05:52.540Z,0.76
2023-03-03T01:08:44.644Z,0.74
2023-03-03T01:11:36.994Z,0.70
2023-03-03T01:14:29.231Z,0.66
2023-03-03T01:17:21.396Z,0.66
2023-03-03T01:20:16.471Z,0.64
2023-03-03T01:23:08.627Z,0.63
2023-03-03T01:26:00.835Z,0.61
2023-03-03T01:28:52.968Z,0.60
2023-03-03T01:31:45.041Z,0.59
2023-03-03T01:34:26.124Z,0.58
2023-03-03T01:37:18.191Z,0.56
2023-03-03T01:40:18.225Z,0.54
2023-03-03T01:43:13.362Z,0.54
2023-03-03T01:46:35.520Z,0.51
2023-03-03T01:49:34.525Z,0.50
2023-03-03T01:52:28.069Z,0.49
2023-03-03T01:55:24.467Z,0.50
2023-03-03T01:58:22.493Z,0.48
2023-03-03T02:01:18.842Z,0.45
2023-03-03T02:04:12.168Z,0.39
2023-03-03T02:07:10.754Z,0.34
2023-03-03T02:10:08.530Z,0.31
2023-03-03T02:13:01.051Z,0.31
2023-03-03T02:15:53.336Z,0.31
2023-03-03T02:18:45.595Z,0.31
2023-03-03T02:21:37.896Z,0.27
2023-03-03T02:24:34.634Z,0.22
2023-03-03T02:27:27.071Z,0.18
2023-03-03T02:30:24.850Z,0.13
2023-03-03T02:33:17.520Z,0.09
2023-03-03T02:36:12.048Z,0.07
2023-03-03T02:39:09.984Z,0.05
2023-03-03T02:42:08.391Z,0.00
2023-03-03T02:45:00.468Z,-0.05
2023-03-03T02:47:53.278Z,-0.09
2023-03-03T02:50:45.358Z,-0.14
2023-03-03T02:53:27.336Z,-0.19
2023-03-03T02:56:19.465Z,-0.25
2023-03-03T02:59:12.348Z,-0.26
2023-03-03T03:02:04.524Z,-0.28
2023-03-03T03:04:56.562Z,-0.31
2023-03-03T03:07:48.632Z,-0.33
2023-03-03T03:10:40.789Z,-0.33
2023-03-03T03:13:34.200Z,-0.31
2023-03-03T03:16:26.401Z,-0.30
2023-03-03T03:19:18.610Z,-0.31
2023-03-03T03:22:11.016Z,-0.32
2023-03-03T03:24:53.122Z,-0.33
2023-03-03T03:27:45.223Z,-0.34
2023-03-03T03:30:38.278Z,-0.37
2023-03-03T03:33:30.479Z,-0.38
2023-03-03T03:36:22.561Z,-0.39
2023-03-03T03:39:14.685Z,-0.42
2023-03-03T03:42:07.041Z,-0.43
2023-03-03T03:44:59.215Z,-0.43
2023-03-03T03:47:39.861Z,-0.45
2023-03-03T03:50:32.182Z,-0.46
2023-03-03T03:53:24.194Z,-0.43
2023-03-03T03:56:16.419Z,-0.43
2023-03-03T03:59:09.644Z,-0.44
2023-03-03T04:02:01.911Z,-0.45
2023-03-03T04:04:54.185Z,-0.46
2023-03-03T04:07:46.646Z,-0.52
2023-03-03T04:10:39.124Z,-0.56
2023-03-03T04:13:39.796Z,-0.59
2023-03-03T04:16:31.828Z,-0.62
2023-03-03T04:19:24.027Z,-0.64
2023-03-03T04:22:16.453Z,-0.66
2023-03-03T04:25:12.657Z,-0.68
2023-03-03T04:28:05.396Z,-0.71
2023-03-03T04:30:57.786Z,-0.73
2023-03-03T04:33:49.951Z,-0.77
2023-03-03T04:36:42.048Z,-0.80
2023-03-03T04:39:34.098Z,-0.81
2023-03-03T04:42:27.986Z,-0.77
2023-03-03T04:45:20.366Z,-0.77
2023-03-03T04:48:12.583Z,-0.77
2023-03-03T04:51:04.878Z,-0.78
2023-03-03T04:53:57.000Z,-0.81
2023-03-03T04:56:49.060Z,-0.84
2023-03-03T04:59:41.221Z,-0.88
2023-03-03T05:02:33.368Z,-0.91
2023-03-03T05:05:25.540Z,-0.92
2023-03-03T05:08:17.730Z,-0.91
2023-03-03T05:11:09.821Z,-0.90
2023-03-03T05:14:03.065Z,-0.91
2023-03-03T05:16:55.817Z,-0.92
2023-03-03T05:19:48.024Z,-0.93
2023-03-03T05:22:22.892Z,-0.89
2023-03-03T05:25:14.964Z,-0.84
2023-03-03T05:28:07.184Z,-0.76
2023-03-03T05:30:59.475Z,-0.68
2023-03-03T05:33:51.620Z,-0.61
2023-03-03T05:36:43.820Z,-0.53
2023-03-03T05:39:36.225Z,-0.43
2023-03-03T05:42:28.502Z,-0.33
2023-03-03T05:45:21.597Z,-0.26
2023-03-03T05:48:13.653Z,-0.22
2023-03-03T05:51:06.198Z,-0.17
2023-03-03T05:53:58.438Z,-0.09
2023-03-03T05:56:50.573Z,-0.04
2023-03-03T05:59:43.093Z,-0.02
2023-03-03T06:02:35.327Z,0.02
2023-03-03T06:05:13.026Z,0.08
2023-03-03T06:08:05.253Z,0.14
2023-03-03T06:10:57.664Z,0.19
2023-03-03T06:13:49.856Z,0.25
2023-03-03T06:16:41.966Z,0.29
2023-03-03T06:19:34.288Z,0.36
2023-03-03T06:22:26.569Z,0.43
2023-03-03T06:25:10.824Z,0.49
2023-03-03T06:28:06.104Z,0.53
2023-03-03T06:30:59.270Z,0.56
2023-03-03T06:33:51.507Z,0.59
2023-03-03T06:36:26.480Z,0.62
2023-03-03T06:39:18.690Z,0.65
2023-03-03T06:42:10.871Z,0.66
2023-03-03T06:45:03.124Z,0.67
2023-03-03T06:47:45.228Z,0.70
2023-03-03T06:50:39.526Z,0.74
2023-03-03T06:53:35.110Z,0.79
2023-03-03T06:56:28.492Z,0.85
2023-03-03T06:59:22.607Z,0.91
2023-03-03T07:02:18.942Z,1.00
2023-03-03T07:05:15.627Z,1.07
2023-03-03T07:08:14.362Z,1.12
2023-03-03T07:11:17.525Z,1.12
2023-03-03T07:14:17.419Z,1.14
2023-03-03T07:17:16.410Z,1.18
2023-03-03T07:20:18.955Z,1.23
2023-03-03T07:23:22.472Z,1.26
2023-03-03T07:26:17.598Z,1.29
2023-03-03T07:28:56.350Z,1.33
2023-03-03T07:31:51.156Z,1.37
2023-03-03T07:34:47.806Z,1.41
2023-03-03T07:37:42.204Z,1.42
2023-03-03T07:40:39.660Z,1.45
2023-03-03T07:43:38.097Z,1.47
2023-03-03T07:46:37.781Z,1.52
2023-03-03T07:49:51.609Z,1.58
2023-03-03T07:52:45.157Z,1.64
2023-03-03T07:55:40.291Z,1.67
2023-03-03T07:58:40.447Z,1.66
2023-03-03T08:01:45.214Z,1.66
2023-03-03T08:04:42.533Z,1.63
2023-03-03T08:07:37.178Z,1.59
2023-03-03T08:10:37.479Z,1.58
2023-03-03T08:13:21.288Z,1.60
2023-03-03T08:16:32.553Z,1.67
2023-03-03T08:19:25.345Z,1.72
2023-03-03T08:22:20.229Z,1.82
2023-03-03T08:25:03.906Z,1.88
2023-03-03T08:27:38.837Z,1.93
2023-03-03T08:30:32.076Z,1.99
2023-03-03T08:33:24.710Z,2.06
2023-03-03T08:36:17.105Z,2.12
2023-03-03T08:39:09.462Z,2.13
2023-03-03T08:41:50.576Z,2.12
2023-03-03T08:44:43.123Z,2.13
2023-03-03T08:47:35.399Z,2.14
2023-03-03T08:50:56.871Z,2.15
2023-03-03T08:53:57.902Z,2.20
2023-03-03T08:56:50.461Z,2.24
2023-03-03T08:59:42.405Z,2.28
2023-03-03T09:02:34.546Z,2.33
2023-03-03T09:05:28.083Z,2.37
2023-03-03T09:08:20.184Z,2.45
2023-03-03T09:11:15.720Z,2.49
2023-03-03T09:14:14.857Z,2.56
2023-03-03T09:17:26.904Z,2.63
2023-03-03T09:20:24.344Z,2.68
2023-03-03T09:23:33.735Z,2.73
2023-03-03T09:26:31.820Z,2.75
2023-03-03T09:29:29.564Z,2.77
2023-03-03T09:32:32.583Z,2.80
2023-03-03T09:35:37.542Z,2.84
2023-03-03T09:38:32.774Z,2.89
2023-03-03T09:41:54.753Z,2.91
2023-03-03T09:45:18.169Z,2.94
2023-03-03T09:48:28.516Z,2.95
2023-03-03T09:51:40.618Z,2.96
2023-03-03T09:54:44.215Z,2.97
2023-03-03T09:58:08.076Z,2.99
2023-03-03T10:01:16.326Z,3.01
2023-03-03T10:04:26.584Z,3.07
2023-03-03T10:07:40.138Z,3.10
2023-03-03T10:10:54.676Z,3.11
2023-03-03T10:14:09.465Z,3.13
2023-03-03T10:17:10.778Z,3.17
2023-03-03T10:20:17.287Z,3.20
2023-03-03T10:23:21.605Z,3.21
2023-03-03T10:26:17.758Z,3.24
2023-03-03T10:29:22.336Z,3.23
2023-03-03T10:32:34.540Z,3.24
2023-03-03T10:36:04.578Z,3.22
2023-03-03T10:39:12.482Z,3.19
2023-03-03T10:42:11.871Z,3.19
2023-03-03T10:45:26.605Z,3.23
2023-03-03T10:48:27.541Z,3.27
2023-03-03T10:51:29.126Z,3.29
2023-03-03T10:54:41.184Z,3.32
2023-03-03T10:57:39.818Z,3.35
2023-03-03T11:00:37.126Z,3.37
2023-03-03T11:04:07.457Z,3.38
2023-03-03T11:06:51.216Z,3.40
2023-03-03T11:09:56.570Z,3.41
2023-03-03T11:13:03.202Z,3.45
2023-03-03T11:16:07.108Z,3.49
2023-03-03T11:19:14.010Z,3.53
2023-03-03T11:22:20.731Z,3.58
2023-03-03T11:25:23.517Z,3.61
2023-03-03T11:28:28.382Z,3.62
2023-03-03T11:31:30.623Z,3.65
2023-03-03T11:34:40.937Z,3.68
2023-03-03T11:37:41.776Z,3.70
2023-03-03T11:40:31.509Z,3.72
2023-03-03T11:43:36.633Z,3.76
2023-03-03T11:46:35.467Z,3.80
2023-03-03T11:49:23.609Z,3.81
2023-03-03T11:52:28.955Z,3.81
2023-03-03T11:55:28.576Z,3.79
2023-03-03T11:58:22.665Z,3.78
2023-03-03T12:01:23.616Z,3.77
2023-03-03T12:04:19.980Z,3.76
2023-03-03T12:07:19.304Z,3.76
2023-03-03T12:10:02.215Z,3.76
2023-03-03T12:12:44.585Z,3.74
2023-03-03T12:15:34.739Z,3.72
2023-03-03T12:18:43.262Z,3.68
2023-03-03T12:21:50.618Z,3.64
2023-03-03T12:24:57.563Z,3.60
2023-03-03T12:27:55.733Z,3.62
2023-03-03T12:31:10.102Z,3.60
2023-03-03T12:34:12.301Z,3.62
2023-03-03T12:37:29.815Z,3.70
2023-03-03T12:40:26.005Z,3.78
2023-03-03T12:43:36.437Z,3.81
2023-03-03T12:46:40.988Z,3.84
2023-03-03T12:49:44.138Z,3.87
2023-03-03T12:52:51.137Z,3.87
2023-03-03T12:55:54.262Z,3.90
2023-03-03T12:59:02.127Z,3.91
2023-03-03T13:02:30.889Z,3.90
2023-03-03T13:05:28.995Z,3.91
2023-03-03T13:08:34.880Z,3.94
2023-03-03T13:11:37.581Z,3.96
2023-03-03T13:14:29.945Z,3.95
2023-03-03T13:17:28.669Z,3.95
2023-03-03T13:20:31.464Z,3.98
2023-03-03T13:23:39.066Z,4.01
2023-03-03T13:26:36.907Z,4.06
2023-03-03T13:29:26.437Z,4.11
2023-03-03T13:32:23.275Z,4.16
2023-03-03T13:35:27.255Z,4.16
2023-03-03T13:38:11.520Z,4.16
2023-03-03T13:41:13.188Z,4.14
2023-03-03T13:43:51.438Z,4.13
2023-03-03T13:46:52.671Z,4.14
2023-03-03T13:50:01.649Z,4.14
2023-03-03T13:53:03.470Z,4.17
2023-03-03T13:56:05.432Z,4.18
2023-03-03T13:59:07.208Z,4.21
2023-03-03T14:01:57.899Z,4.25
2023-03-03T14:05:02.010Z,4.27
2023-03-03T14:08:00.674Z,4.30
2023-03-03T14:11:06.048Z,4.30
2023-03-03T14:14:08.559Z,4.28
2023-03-03T14:17:05.793Z,4.28
2023-03-03T14:19:45.137Z,4.26
2023-03-03T14:22:46.535Z,4.23
2023-03-03T14:26:06.392Z,4.22
2023-03-03T14:29:31.585Z,4.20
2023-03-03T14:32:35.887Z,4.20
2023-03-03T14:35:39.302Z,4.17
2023-03-03T14:38:39.785Z,4.15
2023-03-03T14:41:39.747Z,4.13
2023-03-03T14:44:36.509Z,4.10
2023-03-03T14:47:29.845Z,4.05
2023-03-03T14:50:37.529Z,4.02
2023-03-03T14:53:38.042Z,3.98
2023-03-03T14:56:34.312Z,3.96
2023-03-03T14:59:28.545Z,3.92
2023-03-03T15:02:41.927Z,3.89
2023-03-03T15:05:34.800Z,3.83
2023-03-03T15:08:34.414Z,3.79
2023-03-03T15:11:34.054Z,3.76
2023-03-03T15:14:33.436Z,3.73
2023-03-03T15:17:34.496Z,3.73
2023-03-03T15:20:38.863Z,3.70
2023-03-03T15:23:45.667Z,3.65
2023-03-03T15:26:46.923Z,3.59
2023-03-03T15:29:48.523Z,3.56
2023-03-03T15:32:50.363Z,3.53
2023-03-03T15:35:52.248Z,3.52
2023-03-03T15:38:55.700Z,3.50
2023-03-03T15:41:58.104Z,3.48
2023-03-03T15:44:57.580Z,3.47
2023-03-03T15:48:16.321Z,3.46
2023-03-03T15:51:24.190Z,3.41
2023-03-03T15:54:30.291Z,3.38
2023-03-03T15:57:37.817Z,3.33
2023-03-03T16:00:38.789Z,3.28
2023-03-03T16:03:36.788Z,3.24
2023-03-03T16:06:42.130Z,3.22
2023-03-03T16:09:49.075Z,3.19
2023-03-03T16:12:51.402Z,3.17
2023-03-03T16:15:52.293Z,3.16
2023-03-03T16:18:59.213Z,3.16
2023-03-03T16:22:25.743Z,3.15
2023-03-03T16:25:27.163Z,3.12
2023-03-03T16:28:26.792Z,3.09
2023-03-03T16:31:24.038Z,3.07
2023-03-03T16:34:20.244Z,3.04
2023-03-03T16:37:22.226Z,3.00
2023-03-03T16:40:03.368Z,2.98
2023-03-03T16:43:03.024Z,2.96
2023-03-03T16:46:03.584Z,2.93
2023-03-03T16:49:06.178Z,2.91
2023-03-03T16:52:06.536Z,2.91
2023-03-03T16:55:04.066Z,2.91
2023-03-03T16:58:06.755Z,2.90
2023-03-03T17:01:09.436Z,2.88
2023-03-03T17:04:09.732Z,2.85
2023-03-03T17:07:08.128Z,2.82
2023-03-03T17:10:14.666Z,2.82
2023-03-03T17:13:34.330Z,2.84
2023-03-03T17:16:51.090Z,2.83
2023-03-03T17:20:01.888Z,2.82
2023-03-03T17:23:09.805Z,2.84
2023-03-03T17:26:12.932Z,2.85
2023-03-03T17:29:19.988Z,2.86
2023-03-03T17:32:27.318Z,2.87
2023-03-03T17:35:31.345Z,2.87
2023-03-03T17:38:32.674Z,2.88
2023-03-03T17:41:31.376Z,2.89
2023-03-03T17:44:34.476Z,2.90
2023-03-03T17:47:41.613Z,2.89
2023-03-03T17:50:46.473Z,2.88
2023-03-03T17:54:00.314Z,2.85
2023-03-03T17:56:43.426Z,2.82
2023-03-03T17:59:52.335Z,2.80
2023-03-03T18:03:14.430Z,2.78
2023-03-03T18:06:35.770Z,2.76
2023-03-03T18:09:43.290Z,2.76
2023-03-03T18:12:44.440Z,2.75
2023-03-03T18:16:10.709Z,2.72
2023-03-03T18:19:18.822Z,2.71
2023-03-03T18:22:18.846Z,2.69
2023-03-03T18:25:14.030Z,2.70
2023-03-03T18:28:23.468Z,2.72
2023-03-03T18:31:24.524Z,2.73
2023-03-03T18:34:34.438Z,2.72
2023-03-03T18:37:40.848Z,2.71
2023-03-03T18:40:35.521Z,2.67
2023-03-03T18:43:54.618Z,2.67
2023-03-03T18:46:55.081Z,2.66
2023-03-03T18:49:57.519Z,2.65
2023-03-03T18:52:38.566Z,2.63
2023-03-03T18:55:40.305Z,2.61
2023-03-03T18:58:41.738Z,2.60
2023-03-03T19:01:48.173Z,2.59
2023-03-03T19:04:43.652Z,2.59
2023-03-03T19:07:51.096Z,2.60
2023-03-03T19:10:57.610Z,2.60
2023-03-03T19:13:52.027Z,2.59
2023-03-03T19:16:44.365Z,2.59
2023-03-03T19:19:56.802Z,2.59
2023-03-03T19:23:01.765Z,2.59
2023-03-03T19:26:35.795Z,2.57
2023-03-03T19:29:57.644Z,2.57
2023-03-03T19:33:16.592Z,2.55
2023-03-03T19:36:18.466Z,2.50
2023-03-03T19:39:25.243Z,2.46
2023-03-03T19:42:27.159Z,2.42
2023-03-03T19:45:32.484Z,2.41
2023-03-03T19:48:33.508Z,2.39
2023-03-03T19:51:35.031Z,2.35
2023-03-03T19:54:46.006Z,2.32
2023-03-03T19:57:48.953Z,2.31
2023-03-03T20:00:46.527Z,2.29
2023-03-03T20:03:56.693Z,2.28
2023-03-03T20:06:59.971Z,2.28
2023-03-03T20:10:01.205Z,2.27
2023-03-03T20:13:04.724Z,2.24
2023-03-03T20:16:11.307Z,2.22
2023-03-03T20:19:26.560Z,2.19
2023-03-03T20:22:20.832Z,2.18
2023-03-03T20:25:24.379Z,2.19
2023-03-03T20:28:45.923Z,2.19
2023-03-03T20:31:46.698Z,2.17
2023-03-03T20:35:08.576Z,2.17
2023-03-03T20:38:30.873Z,2.17
2023-03-03T20:41:37.016Z,2.15
2023-03-03T20:44:45.006Z,2.15
2023-03-03T20:47:47.887Z,2.14
2023-03-03T20:50:52.179Z,2.14
2023-03-03T20:53:52.170Z,2.12
2023-03-03T20:56:51.479Z,2.10
2023-03-03T20:59:50.176Z,2.11
2023-03-03T21:02:50.633Z,2.11
2023-03-03T21:05:58.361Z,2.10
2023-03-03T21:08:53.628Z,2.11
2023-03-03T21:11:46.726Z,2.12
2023-03-03T21:14:39.457Z,2.13
2023-03-03T21:17:31.015Z,2.12
2023-03-03T21:20:27.939Z,2.12
2023-03-03T21:23:21.006Z,2.10
2023-03-03T21:26:13.236Z,2.10
2023-03-03T21:29:05.344Z,2.09
2023-03-03T21:31:59.362Z,2.07
2023-03-03T21:35:12.160Z,2.06
2023-03-03T21:38:04.190Z,2.05
2023-03-03T21:41:03.719Z,2.04
2023-03-03T21:43:56.440Z,2.04
2023-03-03T21:46:48.435Z,2.04
2023-03-03T21:49:20.145Z,2.04
2023-03-03T21:52:12.651Z,2.07
2023-03-03T21:55:04.800Z,2.07
2023-03-03T21:57:56.718Z,2.07
2023-03-03T22:00:48.716Z,2.05
2023-03-03T22:03:42.045Z,2.03
2023-03-03T22:06:34.193Z,2.01
2023-03-03T22:09:26.349Z,1.98
2023-03-03T22:12:18.515Z,1.97
2023-03-03T22:15:11.897Z,1.96
2023-03-03T22:18:04.036Z,1.96
2023-03-03T22:20:56.104Z,1.95
2023-03-03T22:23:48.052Z,1.94
2023-03-03T22:26:40.214Z,1.92
2023-03-03T22:29:32.185Z,1.90
2023-03-03T22:32:14.133Z,1.88
2023-03-03T22:34:49.229Z,1.88
2023-03-03T22:37:41.204Z,1.88
2023-03-03T22:40:33.717Z,1.89
2023-03-03T22:43:27.617Z,1.89
2023-03-03T22:46:19.653Z,1.90
2023-03-03T22:49:11.697Z,1.89
2023-03-03T22:52:04.005Z,1.90
2023-03-03T22:54:57.912Z,1.90
2023-03-03T22:57:50.016Z,1.91
2023-03-03T23:00:43.292Z,1.93
2023-03-03T23:03:21.517Z,1.94
2023-03-03T23:06:13.525Z,1.95
2023-03-03T23:09:05.640Z,1.94
2023-03-03T23:11:57.659Z,1.94
2023-03-03T23:14:49.705Z,1.93
2023-03-03T23:17:42.262Z,1.94
2023-03-03T23:20:24.772Z,1.95
2023-03-03T23:22:59.985Z,1.97
2023-03-03T23:25:51.985Z,1.99
2023-03-03T23:28:44.184Z,2.02
2023-03-03T23:31:36.252Z,2.03
2023-03-03T23:34:28.370Z,2.04
2023-03-03T23:37:20.775Z,2.02
2023-03-03T23:40:24.300Z,1.99
2023-03-03T23:43:16.392Z,1.99
2023-03-03T23:46:08.552Z,1.99
2023-03-03T23:49:02.090Z,1.99
2023-03-03T23:51:54.107Z,1.97
2023-03-03T23:54:46.377Z,1.96
2023-03-03T23:57:38.304Z,1.94
